createdAt,value
2022-11-28T00:00:12.735Z,52.03
2022-11-28T00:01:12.716Z,50.04
2022-11-28T00:02:12.836Z,50.23
2022-11-28T00:03:12.834Z,49.27
2022-11-28T00:04:12.644Z,49.94
2022-11-28T00:05:12.620Z,53.46
2022-11-28T00:06:12.707Z,51.93
2022-11-28T00:07:12.667Z,50.79
2022-11-28T00:08:12.550Z,52.13
2022-11-28T00:09:12.531Z,50.89
2022-11-28T00:10:12.506Z,49.18
2022-11-28T00:11:12.484Z,49.27
2022-11-28T00:12:12.457Z,51.27
2022-11-28T00:13:12.438Z,51.65
2022-11-28T00:14:12.412Z,52.32
2022-11-28T00:15:12.397Z,51.18
2022-11-28T00:16:12.407Z,52.32
2022-11-28T00:17:12.345Z,51.84
2022-11-28T00:18:12.317Z,52.22
2022-11-28T00:19:12.297Z,51.27
2022-11-28T00:20:12.269Z,53.84
2022-11-28T00:21:12.247Z,52.61
2022-11-28T00:22:12.344Z,52.98
2022-11-28T00:23:12.206Z,52.70
2022-11-28T00:24:12.182Z,52.41
2022-11-28T00:25:12.162Z,52.51
2022-11-28T00:26:12.136Z,52.22
2022-11-28T00:27:12.113Z,52.22
2022-11-28T00:28:12.088Z,51.93
2022-11-28T00:29:12.069Z,52.13
2022-11-28T00:30:12.042Z,53.84
2022-11-28T00:31:12.040Z,54.41
2022-11-28T00:32:12.053Z,54.98
2022-11-28T00:33:11.976Z,55.27
2022-11-28T00:34:11.949Z,56.60
2022-11-28T00:35:11.931Z,55.27
2022-11-28T00:36:11.916Z,55.08
2022-11-28T00:37:11.886Z,53.55
2022-11-28T00:38:11.974Z,52.22
2022-11-28T00:39:11.836Z,53.84
2022-11-28T00:40:11.818Z,54.22
2022-11-28T00:41:11.796Z,54.41
2022-11-28T00:42:11.772Z,55.65
2022-11-28T00:43:11.746Z,55.36
2022-11-28T00:44:11.720Z,54.32
2022-11-28T00:45:11.704Z,52.89
2022-11-28T00:46:11.776Z,52.32
2022-11-28T00:47:11.656Z,52.70
2022-11-28T00:48:11.630Z,51.18
2022-11-28T00:49:11.611Z,51.93
2022-11-28T00:50:11.583Z,51.46
2022-11-28T00:51:11.567Z,52.32
2022-11-28T00:52:11.538Z,52.03
2022-11-28T00:53:11.514Z,50.70
2022-11-28T00:54:11.602Z,50.32
2022-11-28T00:55:11.471Z,50.51
2022-11-28T00:56:11.448Z,50.89
2022-11-28T00:57:11.427Z,52.03
2022-11-28T00:58:11.397Z,52.32
2022-11-28T00:59:11.388Z,52.13
2022-11-28T01:00:11.368Z,50.70
2022-11-28T01:01:11.434Z,49.27
2022-11-28T01:02:11.419Z,48.23
2022-11-28T01:03:11.294Z,47.56
2022-11-28T01:04:11.266Z,45.85
2022-11-28T01:05:11.238Z,45.18
2022-11-28T01:06:11.222Z,45.09
2022-11-28T01:07:11.199Z,46.80
2022-11-28T01:08:11.203Z,47.28
2022-11-28T01:09:11.148Z,46.99
2022-11-28T01:10:11.245Z,45.47
2022-11-28T01:11:11.112Z,47.47
2022-11-28T01:12:11.074Z,47.28
2022-11-28T01:13:11.060Z,46.70
2022-11-28T01:14:11.028Z,46.70
2022-11-28T01:15:11.043Z,45.95
2022-11-28T01:16:11.076Z,44.71
2022-11-28T01:17:10.973Z,44.80
2022-11-28T01:18:10.942Z,43.57
2022-11-28T01:19:10.920Z,43.28
2022-11-28T01:20:10.898Z,43.38
2022-11-28T01:21:10.869Z,43.19
2022-11-28T01:22:10.844Z,43.28
2022-11-28T01:23:10.824Z,42.14
2022-11-28T01:24:10.797Z,41.76
2022-11-28T01:25:10.778Z,41.57
2022-11-28T01:26:10.868Z,40.81
2022-11-28T01:27:10.730Z,40.90
2022-11-28T01:28:10.707Z,40.23
2022-11-28T01:29:10.693Z,39.09
2022-11-28T01:30:10.664Z,39.28
2022-11-28T01:31:10.674Z,38.81
2022-11-28T01:32:10.620Z,38.05
2022-11-28T01:33:10.595Z,38.90
2022-11-28T01:34:10.571Z,38.24
2022-11-28T01:35:10.549Z,37.00
2022-11-28T01:36:10.518Z,37.38
2022-11-28T01:37:10.503Z,37.95
2022-11-28T01:38:10.477Z,38.14
2022-11-28T01:39:10.459Z,37.95
2022-11-28T01:40:10.430Z,37.76
2022-11-28T01:41:10.410Z,37.29
2022-11-28T01:42:10.497Z,36.72
2022-11-28T01:43:10.372Z,37.10
2022-11-28T01:44:10.335Z,37.86
2022-11-28T01:45:10.313Z,37.00
2022-11-28T01:46:10.293Z,36.81
2022-11-28T01:47:10.309Z,36.15
2022-11-28T01:48:10.244Z,35.29
2022-11-28T01:49:10.224Z,34.53
2022-11-28T01:50:10.202Z,34.91
2022-11-28T01:51:10.179Z,34.24
2022-11-28T01:52:10.157Z,34.44
2022-11-28T01:53:10.136Z,34.81
2022-11-28T01:54:10.102Z,34.15
2022-11-28T01:55:10.091Z,34.15
2022-11-28T01:56:10.058Z,34.34
2022-11-28T01:57:10.043Z,35.77
2022-11-28T01:58:10.141Z,35.38
2022-11-28T01:59:09.990Z,34.63
2022-11-28T02:00:09.968Z,35.48
2022-11-28T02:01:09.998Z,35.77
2022-11-28T02:02:10.003Z,35.77
2022-11-28T02:03:09.900Z,35.67
2022-11-28T02:04:09.878Z,35.48
2022-11-28T02:05:09.851Z,35.77
2022-11-28T02:06:09.826Z,35.58
2022-11-28T02:07:09.806Z,34.81
2022-11-28T02:08:09.780Z,34.24
2022-11-28T02:09:09.762Z,34.34
2022-11-28T02:10:09.738Z,33.86
2022-11-28T02:11:09.718Z,33.96
2022-11-28T02:12:09.693Z,34.05
2022-11-28T02:13:09.675Z,33.86
2022-11-28T02:14:09.760Z,33.01
2022-11-28T02:15:09.623Z,33.86
2022-11-28T02:16:09.648Z,32.34
2022-11-28T02:17:09.581Z,31.96
2022-11-28T02:18:09.554Z,31.58
2022-11-28T02:19:09.535Z,30.63
2022-11-28T02:20:09.507Z,30.73
2022-11-28T02:21:09.487Z,30.34
2022-11-28T02:22:09.461Z,29.30
2022-11-28T02:23:09.443Z,29.39
2022-11-28T02:24:09.418Z,28.25
2022-11-28T02:25:09.400Z,28.72
2022-11-28T02:26:09.368Z,27.49
2022-11-28T02:27:09.351Z,27.30
2022-11-28T02:28:09.329Z,27.87
2022-11-28T02:29:09.302Z,27.30
2022-11-28T02:30:09.389Z,26.64
2022-11-28T02:31:09.336Z,26.25
2022-11-28T02:32:09.232Z,25.96
2022-11-28T02:33:09.209Z,25.68
2022-11-28T02:34:09.182Z,24.54
2022-11-28T02:35:09.162Z,24.73
2022-11-28T02:36:09.133Z,23.88
2022-11-28T02:37:09.165Z,23.40
2022-11-28T02:38:09.093Z,23.21
2022-11-28T02:39:09.071Z,23.02
2022-11-28T02:40:09.046Z,22.64
2022-11-28T02:41:09.029Z,22.06
2022-11-28T02:42:08.999Z,21.97
2022-11-28T02:43:08.979Z,23.30
2022-11-28T02:44:08.953Z,23.02
2022-11-28T02:45:08.930Z,22.54
2022-11-28T02:46:09.021Z,21.97
2022-11-28T02:47:08.935Z,20.53
2022-11-28T02:48:08.857Z,21.20
2022-11-28T02:49:08.834Z,20.53
2022-11-28T02:50:08.813Z,19.87
2022-11-28T02:51:08.792Z,19.30
2022-11-28T02:52:08.767Z,18.73
2022-11-28T02:53:08.748Z,18.73
2022-11-28T02:54:08.722Z,18.64
2022-11-28T02:55:08.697Z,17.87
2022-11-28T02:56:08.672Z,17.97
2022-11-28T02:57:08.656Z,17.21
2022-11-28T02:58:08.625Z,17.31
2022-11-28T02:59:08.605Z,17.02
2022-11-28T03:00:08.581Z,17.12
2022-11-28T03:01:08.611Z,17.30
2022-11-28T03:02:08.798Z,17.31
2022-11-28T03:03:08.511Z,17.02
2022-11-28T03:04:08.486Z,17.11
2022-11-28T03:05:08.468Z,17.11
2022-11-28T03:06:08.437Z,16.46
2022-11-28T03:07:08.422Z,16.08
2022-11-28T03:08:08.393Z,16.46
2022-11-28T03:09:08.375Z,16.16
2022-11-28T03:10:08.347Z,16.36
2022-11-28T03:11:08.329Z,16.27
2022-11-28T03:12:08.300Z,16.16
2022-11-28T03:13:08.281Z,15.88
2022-11-28T03:14:08.257Z,15.50
2022-11-28T03:15:08.239Z,16.08
2022-11-28T03:16:08.277Z,15.50
2022-11-28T03:17:08.193Z,14.84
2022-11-28T03:18:08.279Z,14.92
2022-11-28T03:19:08.148Z,14.93
2022-11-28T03:20:08.118Z,15.03
2022-11-28T03:21:08.101Z,14.54
2022-11-28T03:22:08.074Z,14.54
2022-11-28T03:23:08.051Z,14.55
2022-11-28T03:24:08.023Z,14.65
2022-11-28T03:25:08.012Z,14.93
2022-11-28T03:26:07.983Z,15.41
2022-11-28T03:27:07.962Z,14.93
2022-11-28T03:28:07.932Z,14.73
2022-11-28T03:29:07.918Z,15.02
2022-11-28T03:30:07.887Z,14.83
2022-11-28T03:31:07.945Z,15.50
2022-11-28T03:32:07.844Z,14.84
2022-11-28T03:33:07.821Z,14.93
2022-11-28T03:34:07.914Z,14.36
2022-11-28T03:35:07.781Z,14.17
2022-11-28T03:36:07.751Z,13.98
2022-11-28T03:37:07.729Z,13.60
2022-11-28T03:38:07.713Z,14.46
2022-11-28T03:39:07.687Z,15.31
2022-11-28T03:40:07.661Z,16.46
2022-11-28T03:41:07.642Z,17.02
2022-11-28T03:42:07.612Z,16.74
2022-11-28T03:43:07.598Z,16.46
2022-11-28T03:44:07.573Z,16.64
2022-11-28T03:45:07.551Z,16.74
2022-11-28T03:46:07.522Z,16.27
2022-11-28T03:47:07.593Z,16.36
2022-11-28T03:48:07.479Z,16.46
2022-11-28T03:49:07.458Z,16.27
2022-11-28T03:50:07.544Z,16.27
2022-11-28T03:51:07.416Z,16.27
2022-11-28T03:52:07.386Z,16.36
2022-11-28T03:53:07.367Z,16.55
2022-11-28T03:54:07.342Z,16.46
2022-11-28T03:55:07.322Z,16.64
2022-11-28T03:56:07.359Z,16.36
2022-11-28T03:57:07.279Z,15.88
2022-11-28T03:58:07.249Z,15.60
2022-11-28T03:59:07.235Z,15.79
2022-11-28T04:00:07.208Z,15.79
2022-11-28T04:01:07.268Z,15.88
2022-11-28T04:02:07.160Z,16.17
2022-11-28T04:03:07.206Z,17.31
2022-11-28T04:04:07.122Z,17.12
2022-11-28T04:05:07.104Z,18.07
2022-11-28T04:06:07.192Z,17.60
2022-11-28T04:07:07.056Z,17.88
2022-11-28T04:08:07.039Z,17.12
2022-11-28T04:09:10.176Z,17.31
2022-11-28T04:10:06.984Z,16.83
2022-11-28T04:11:06.965Z,17.12
2022-11-28T04:12:06.943Z,17.31
2022-11-28T04:13:06.922Z,17.02
2022-11-28T04:14:06.896Z,17.41
2022-11-28T04:15:06.877Z,17.22
2022-11-28T04:16:06.893Z,17.60
2022-11-28T04:17:06.829Z,17.97
2022-11-28T04:18:06.809Z,17.69
2022-11-28T04:19:06.783Z,17.69
2022-11-28T04:20:06.760Z,17.31
2022-11-28T04:21:06.742Z,17.31
2022-11-28T04:22:06.828Z,17.12
2022-11-28T04:23:06.697Z,16.83
2022-11-28T04:24:06.674Z,16.46
2022-11-28T04:25:06.652Z,16.74
2022-11-28T04:26:06.630Z,16.46
2022-11-28T04:27:06.609Z,16.74
2022-11-28T04:28:06.586Z,16.36
2022-11-28T04:29:06.562Z,16.08
2022-11-28T04:30:06.533Z,14.93
2022-11-28T04:31:06.644Z,14.84
2022-11-28T04:32:06.492Z,14.55
2022-11-28T04:33:06.475Z,13.79
2022-11-28T04:34:06.450Z,13.60
2022-11-28T04:35:06.432Z,13.89
2022-11-28T04:36:06.408Z,13.89
2022-11-28T04:37:09.797Z,13.41
2022-11-28T04:38:06.384Z,13.22
2022-11-28T04:39:06.337Z,13.22
2022-11-28T04:40:06.313Z,12.55
2022-11-28T04:41:06.291Z,12.46
2022-11-28T04:42:06.266Z,12.08
2022-11-28T04:43:06.248Z,11.89
2022-11-28T04:44:06.224Z,11.51
2022-11-28T04:45:06.207Z,11.13
2022-11-28T04:46:06.297Z,10.36
2022-11-28T04:47:06.159Z,10.27
2022-11-28T04:48:06.134Z,9.61
2022-11-28T04:49:06.114Z,9.61
2022-11-28T04:50:06.094Z,9.42
2022-11-28T04:51:06.071Z,9.22
2022-11-28T04:52:06.045Z,8.84
2022-11-28T04:53:06.032Z,8.75
2022-11-28T04:54:06.019Z,8.27
2022-11-28T04:55:05.985Z,8.65
2022-11-28T04:56:05.956Z,8.27
2022-11-28T04:57:05.937Z,7.80
2022-11-28T04:58:05.908Z,7.42
2022-11-28T04:59:05.891Z,7.80
2022-11-28T05:00:05.862Z,7.04
2022-11-28T05:01:05.906Z,7.42
2022-11-28T05:02:05.889Z,6.85
2022-11-28T05:03:05.803Z,6.46
2022-11-28T05:04:05.777Z,6.66
2022-11-28T05:05:05.756Z,6.56
2022-11-28T05:06:05.728Z,5.99
2022-11-28T05:07:05.712Z,5.71
2022-11-28T05:08:05.686Z,5.90
2022-11-28T05:09:05.667Z,5.61
2022-11-28T05:10:05.768Z,5.23
2022-11-28T05:11:05.626Z,5.32
2022-11-28T05:12:05.600Z,5.61
2022-11-28T05:13:05.574Z,5.04
2022-11-28T05:14:05.552Z,4.66
2022-11-28T05:15:05.528Z,4.66
2022-11-28T05:16:05.566Z,4.57
2022-11-28T05:17:05.481Z,4.47
2022-11-28T05:18:05.462Z,4.09
2022-11-28T05:19:05.449Z,4.28
2022-11-28T05:20:05.411Z,4.09
2022-11-28T05:21:05.394Z,3.99
2022-11-28T05:22:05.371Z,3.99
2022-11-28T05:23:05.354Z,3.99
2022-11-28T05:24:05.337Z,4.18
2022-11-28T05:25:05.306Z,3.99
2022-11-28T05:26:05.397Z,3.99
2022-11-28T05:27:05.275Z,3.80
2022-11-28T05:28:05.240Z,3.80
2022-11-28T05:29:05.222Z,3.80
2022-11-28T05:30:05.193Z,3.52
2022-11-28T05:31:05.240Z,3.52
2022-11-28T05:32:05.228Z,3.52
2022-11-28T05:33:05.129Z,3.33
2022-11-28T05:34:05.116Z,2.85
2022-11-28T05:35:05.089Z,2.37
2022-11-28T05:36:08.626Z,2.37
2022-11-28T05:37:05.033Z,2.47
2022-11-28T05:38:08.262Z,2.19
2022-11-28T05:39:04.987Z,2.56
2022-11-28T05:40:04.965Z,2.75
2022-11-28T05:41:04.947Z,2.19
2022-11-28T05:42:05.032Z,2.28
2022-11-28T05:43:04.906Z,2.28
2022-11-28T05:44:04.874Z,2.09
2022-11-28T05:45:04.856Z,1.71
2022-11-28T05:46:04.892Z,1.71
2022-11-28T05:47:04.807Z,1.61
2022-11-28T05:48:04.786Z,1.04
2022-11-28T05:49:04.760Z,0.67
2022-11-28T05:50:04.737Z,0.57
2022-11-28T05:51:04.715Z,0.95
2022-11-28T05:52:04.693Z,0.19
2022-11-28T05:53:04.673Z,0.28
2022-11-28T05:54:04.650Z,0.67
2022-11-28T05:55:04.625Z,0.67
2022-11-28T05:56:04.603Z,0.76
2022-11-28T05:57:04.581Z,0.85
2022-11-28T05:58:04.670Z,0.76
2022-11-28T05:59:04.535Z,0.19
2022-11-28T06:00:04.525Z,0.00
2022-11-28T06:01:04.493Z,0.09
2022-11-28T06:02:04.499Z,0.00
2022-11-28T06:03:04.447Z,0.00
2022-11-28T06:04:04.506Z,0.00
2022-11-28T06:05:21.394Z,0.00
2022-11-28T06:06:04.375Z,0.00
2022-11-28T06:07:04.355Z,0.00
2022-11-28T06:08:04.378Z,0.00
2022-11-28T06:09:04.313Z,0.00
2022-11-28T06:10:04.280Z,0.00
2022-11-28T06:11:04.263Z,0.00
2022-11-28T06:12:04.241Z,0.00
2022-11-28T06:13:04.215Z,0.00
2022-11-28T06:14:04.310Z,0.00
2022-11-28T06:15:04.175Z,0.00
2022-11-28T06:16:04.180Z,0.00
2022-11-28T06:17:04.140Z,0.00
2022-11-28T06:18:04.101Z,0.00
2022-11-28T06:19:04.079Z,0.00
2022-11-28T06:20:04.057Z,0.00
2022-11-28T06:21:04.035Z,0.00
2022-11-28T06:22:04.013Z,0.00
2022-11-28T06:23:03.992Z,0.00
2022-11-28T06:24:03.962Z,0.00
2022-11-28T06:25:03.944Z,0.00
2022-11-28T06:26:03.922Z,0.00
2022-11-28T06:27:03.900Z,0.00
2022-11-28T06:28:03.870Z,0.00
2022-11-28T06:29:03.856Z,0.00
2022-11-28T06:30:03.946Z,0.00
2022-11-28T06:31:03.803Z,0.00
2022-11-28T06:32:03.815Z,0.00
2022-11-28T06:33:03.766Z,0.00
2022-11-28T06:34:03.735Z,0.00
2022-11-28T06:35:03.719Z,0.00
2022-11-28T06:36:03.692Z,0.00
2022-11-28T06:37:03.670Z,0.00
2022-11-28T06:38:03.646Z,0.00
2022-11-28T06:39:03.626Z,0.00
2022-11-28T06:40:03.609Z,0.00
2022-11-28T06:41:03.581Z,0.00
2022-11-28T06:42:03.555Z,0.09
2022-11-28T06:43:03.537Z,0.00
2022-11-28T06:44:03.509Z,0.00
2022-11-28T06:45:03.486Z,0.09
2022-11-28T06:46:03.639Z,0.00
2022-11-28T06:47:03.439Z,0.00
2022-11-28T06:48:03.421Z,0.00
2022-11-28T06:49:03.397Z,0.00
2022-11-28T06:50:03.373Z,0.00
2022-11-28T06:51:03.355Z,0.00
2022-11-28T06:52:03.329Z,0.00
2022-11-28T06:53:03.306Z,0.00
2022-11-28T06:54:03.294Z,0.00
2022-11-28T06:55:03.262Z,0.00
2022-11-28T06:56:03.246Z,0.00
2022-11-28T06:57:03.212Z,0.00
2022-11-28T06:58:03.204Z,0.00
2022-11-28T06:59:03.175Z,0.00
2022-11-28T07:00:03.156Z,0.00
2022-11-28T07:01:03.184Z,0.00
2022-11-28T07:02:07.507Z,0.00
2022-11-28T07:03:03.078Z,0.00
2022-11-28T07:04:03.059Z,0.00
2022-11-28T07:05:03.032Z,0.00
2022-11-28T07:06:03.011Z,0.00
2022-11-28T07:07:02.985Z,0.00
2022-11-28T07:08:03.062Z,0.00
2022-11-28T07:09:02.943Z,0.00
2022-11-28T07:10:02.925Z,0.00
2022-11-28T07:11:02.898Z,0.00
2022-11-28T07:12:02.880Z,0.00
2022-11-28T07:13:05.616Z,0.00
2022-11-28T07:14:02.831Z,0.00
2022-11-28T07:15:02.817Z,0.00
2022-11-28T07:16:02.795Z,0.00
2022-11-28T07:17:02.869Z,0.00
2022-11-28T07:18:02.849Z,0.00
2022-11-28T07:19:02.716Z,0.00
2022-11-28T07:20:02.694Z,0.00
2022-11-28T07:21:02.672Z,0.00
2022-11-28T07:22:02.648Z,0.00
2022-11-28T07:23:02.620Z,0.00
2022-11-28T07:24:02.604Z,0.00
2022-11-28T07:25:02.577Z,0.00
2022-11-28T07:26:02.558Z,0.00
2022-11-28T07:27:02.533Z,0.09
2022-11-28T07:28:02.516Z,0.67
2022-11-28T07:29:02.504Z,0.76
2022-11-28T07:30:02.470Z,1.04
2022-11-28T07:31:02.444Z,1.14
2022-11-28T07:32:02.546Z,0.95
2022-11-28T07:33:02.396Z,1.14
2022-11-28T07:34:02.494Z,1.71
2022-11-28T07:35:02.362Z,1.90
2022-11-28T07:36:02.334Z,1.71
2022-11-28T07:37:02.306Z,1.80
2022-11-28T07:38:02.288Z,1.14
2022-11-28T07:39:02.261Z,1.23
2022-11-28T07:40:02.246Z,1.23
2022-11-28T07:41:02.234Z,1.23
2022-11-28T07:42:02.383Z,1.23
2022-11-28T07:43:02.177Z,0.95
2022-11-28T07:44:02.145Z,1.14
2022-11-28T07:45:02.128Z,1.14
2022-11-28T07:46:02.228Z,1.04
2022-11-28T07:47:02.134Z,1.04
2022-11-28T07:48:02.058Z,1.42
2022-11-28T07:49:02.039Z,1.71
2022-11-28T07:50:02.060Z,2.19
2022-11-28T07:51:01.989Z,2.47
2022-11-28T07:52:01.965Z,2.28
2022-11-28T07:53:06.959Z,2.37
2022-11-28T07:54:01.923Z,2.47
2022-11-28T07:55:01.910Z,2.37
2022-11-28T07:56:01.887Z,2.37
2022-11-28T07:57:11.739Z,2.37
2022-11-28T07:58:01.827Z,2.37
2022-11-28T07:59:03.353Z,2.37
2022-11-28T08:00:01.788Z,1.81
2022-11-28T08:01:01.762Z,2.09
2022-11-28T08:02:01.858Z,2.56
2022-11-28T08:03:01.719Z,2.47
2022-11-28T08:04:01.732Z,2.37
2022-11-28T08:05:01.754Z,2.28
2022-11-28T08:06:03.155Z,2.56
2022-11-28T08:07:01.623Z,2.47
2022-11-28T08:08:01.643Z,2.94
2022-11-28T08:09:01.581Z,3.33
2022-11-28T08:10:01.557Z,3.14
2022-11-28T08:11:01.526Z,3.23
2022-11-28T08:12:01.517Z,3.52
2022-11-28T08:13:01.489Z,3.42
2022-11-28T08:14:01.471Z,3.42
2022-11-28T08:15:01.446Z,3.52
2022-11-28T08:16:01.426Z,3.99
2022-11-28T08:17:01.472Z,4.18
2022-11-28T08:18:01.376Z,4.37
2022-11-28T08:19:01.355Z,3.99
2022-11-28T08:20:01.330Z,4.47
2022-11-28T08:21:01.308Z,3.89
2022-11-28T08:22:01.308Z,4.37
2022-11-28T08:23:01.261Z,4.28
2022-11-28T08:24:01.250Z,4.66
2022-11-28T08:25:01.237Z,4.57
2022-11-28T08:26:01.197Z,5.13
2022-11-28T08:27:01.177Z,5.13
2022-11-28T08:28:01.141Z,4.85
2022-11-28T08:29:01.122Z,5.04
2022-11-28T08:30:01.104Z,5.23
2022-11-28T08:31:01.155Z,5.51
2022-11-28T08:32:01.059Z,5.42
2022-11-28T08:33:01.030Z,5.99
2022-11-28T08:34:01.018Z,6.56
2022-11-28T08:35:00.982Z,6.46
2022-11-28T08:36:00.969Z,6.56
2022-11-28T08:37:00.938Z,6.85
2022-11-28T08:38:02.201Z,7.13
2022-11-28T08:39:22.787Z,6.85
2022-11-28T08:40:00.876Z,7.04
2022-11-28T08:41:00.860Z,6.66
2022-11-28T08:42:00.831Z,6.94
2022-11-28T08:43:00.811Z,6.85
2022-11-28T08:44:00.787Z,7.13
2022-11-28T08:45:00.763Z,7.32
2022-11-28T08:46:00.805Z,7.89
2022-11-28T08:47:00.773Z,7.99
2022-11-28T08:48:00.702Z,8.47
2022-11-28T08:49:00.671Z,8.27
2022-11-28T08:50:00.645Z,8.27
2022-11-28T08:51:00.641Z,8.27
2022-11-28T08:52:00.613Z,8.27
2022-11-28T08:53:07.327Z,8.18
2022-11-28T08:54:00.585Z,7.89
2022-11-28T08:55:00.535Z,7.89
2022-11-28T08:56:00.520Z,7.51
2022-11-28T08:57:00.491Z,7.71
2022-11-28T08:58:00.474Z,7.71
2022-11-28T08:59:00.450Z,7.99
2022-11-28T09:00:00.432Z,7.80
2022-11-28T09:01:00.471Z,7.99
2022-11-28T09:02:00.390Z,8.28
2022-11-28T09:03:00.359Z,8.47
2022-11-28T09:04:00.420Z,9.89
2022-11-28T09:05:00.313Z,11.71
2022-11-28T09:06:00.293Z,11.99
2022-11-28T09:07:00.272Z,12.37
2022-11-28T09:08:00.334Z,13.32
2022-11-28T09:09:00.225Z,14.17
2022-11-28T09:10:00.246Z,13.60
2022-11-28T09:11:00.189Z,13.03
2022-11-28T09:12:00.167Z,12.55
2022-11-28T09:13:00.138Z,12.74
2022-11-28T09:14:00.124Z,12.84
2022-11-28T09:15:00.111Z,12.74
2022-11-28T09:16:00.081Z,12.18
2022-11-28T09:17:00.128Z,11.51
2022-11-28T09:18:00.030Z,11.98
2022-11-28T09:19:00.011Z,11.32
2022-11-28T09:19:59.990Z,11.80
2022-11-28T09:20:59.966Z,11.80
2022-11-28T09:22:00.074Z,12.74
2022-11-28T09:22:59.932Z,12.65
2022-11-28T09:23:59.892Z,12.27
2022-11-28T09:24:59.870Z,11.80
2022-11-28T09:25:59.874Z,11.61
2022-11-28T09:26:59.829Z,11.89
2022-11-28T09:27:59.808Z,11.98
2022-11-28T09:28:59.784Z,11.42
2022-11-28T09:29:59.759Z,11.32
2022-11-28T09:30:59.856Z,11.32
2022-11-28T09:31:59.713Z,12.55
2022-11-28T09:32:59.688Z,12.84
2022-11-28T09:33:59.674Z,12.08
2022-11-28T09:34:59.648Z,11.51
2022-11-28T09:35:59.634Z,11.51
2022-11-28T09:37:04.636Z,11.41
2022-11-28T09:37:59.579Z,11.32
2022-11-28T09:38:59.567Z,10.94
2022-11-28T09:40:11.911Z,11.32
2022-11-28T09:40:59.519Z,11.22
2022-11-28T09:41:59.520Z,11.42
2022-11-28T09:42:59.467Z,10.85
2022-11-28T09:43:59.448Z,11.04
2022-11-28T09:44:59.425Z,10.36
2022-11-28T09:45:59.436Z,9.80
2022-11-28T09:46:59.378Z,9.89
2022-11-28T09:47:59.367Z,11.23
2022-11-28T09:48:59.331Z,12.08
2022-11-28T09:49:59.321Z,12.85
2022-11-28T09:50:59.292Z,12.94
2022-11-28T09:51:59.269Z,12.94
2022-11-28T09:52:59.337Z,13.42
2022-11-28T09:53:59.226Z,13.04
2022-11-28T09:54:59.208Z,12.37
2022-11-28T09:55:59.182Z,12.75
2022-11-28T09:56:59.166Z,13.13
2022-11-28T09:57:59.163Z,12.46
2022-11-28T09:58:59.126Z,11.99
2022-11-28T09:59:59.096Z,12.27
2022-11-28T10:00:59.072Z,12.27
2022-11-28T10:01:59.048Z,12.94
2022-11-28T10:02:59.024Z,13.60
2022-11-28T10:03:59.200Z,14.28
2022-11-28T10:04:59.071Z,13.89
2022-11-28T10:05:58.959Z,13.51
2022-11-28T10:06:58.936Z,13.04
2022-11-28T10:07:58.984Z,13.13
2022-11-28T10:08:58.896Z,13.04
2022-11-28T10:09:58.881Z,13.51
2022-11-28T10:10:58.871Z,12.94
2022-11-28T10:11:58.826Z,12.85
2022-11-28T10:12:58.807Z,12.85
2022-11-28T10:14:13.766Z,13.51
2022-11-28T10:14:58.758Z,14.08
2022-11-28T10:15:58.762Z,14.47
2022-11-28T10:16:58.821Z,15.23
2022-11-28T10:17:58.717Z,15.13
2022-11-28T10:18:58.671Z,16.17
2022-11-28T10:19:58.775Z,16.08
2022-11-28T10:20:58.629Z,17.22
2022-11-28T10:21:59.577Z,18.08
2022-11-28T10:22:58.588Z,17.32
2022-11-28T10:23:58.571Z,17.60
2022-11-28T10:24:58.535Z,18.55
2022-11-28T10:25:58.526Z,18.84
2022-11-28T10:26:58.509Z,18.94
2022-11-28T10:27:58.475Z,18.84
2022-11-28T10:28:58.458Z,19.03
2022-11-28T10:29:58.450Z,18.94
2022-11-28T10:30:58.456Z,19.13
2022-11-28T10:31:58.387Z,19.60
2022-11-28T10:32:58.368Z,19.22
2022-11-28T10:33:58.348Z,19.89
2022-11-28T10:34:58.315Z,20.84
2022-11-28T10:35:58.301Z,20.75
2022-11-28T10:36:58.277Z,20.65
2022-11-28T10:37:58.261Z,21.22
2022-11-28T10:38:58.225Z,23.03
2022-11-28T10:39:58.211Z,22.27
2022-11-28T10:40:58.184Z,21.89
2022-11-28T10:41:58.165Z,23.60
2022-11-28T10:42:58.143Z,23.03
2022-11-28T10:43:58.123Z,23.69
2022-11-28T10:44:58.099Z,23.41
2022-11-28T10:45:58.107Z,22.27
2022-11-28T10:46:58.060Z,24.08
2022-11-28T10:48:01.292Z,24.65
2022-11-28T10:48:58.007Z,23.89
2022-11-28T10:49:57.998Z,23.69
2022-11-28T10:50:57.967Z,23.79
2022-11-28T10:51:57.946Z,23.89
2022-11-28T10:52:57.939Z,27.22
2022-11-28T10:53:57.902Z,28.83
2022-11-28T10:54:57.875Z,26.74
2022-11-28T10:55:57.855Z,25.60
2022-11-28T10:56:57.832Z,25.12
2022-11-28T10:57:57.834Z,25.70
2022-11-28T10:58:57.787Z,25.70
2022-11-28T10:59:57.769Z,27.22
2022-11-28T11:00:57.831Z,26.93
2022-11-28T11:01:57.778Z,27.12
2022-11-28T11:02:57.707Z,25.79
2022-11-28T11:03:57.679Z,24.74
2022-11-28T11:04:57.726Z,25.60
2022-11-28T11:05:57.636Z,25.60
2022-11-28T11:07:08.835Z,25.60
2022-11-28T11:07:57.672Z,25.12
2022-11-28T11:08:57.569Z,24.27
2022-11-28T11:09:57.544Z,24.37
2022-11-28T11:10:57.525Z,24.46
2022-11-28T11:11:57.499Z,23.71
2022-11-28T11:12:57.481Z,24.37
2022-11-28T11:13:57.458Z,23.89
2022-11-28T11:14:57.438Z,23.04
2022-11-28T11:15:57.439Z,23.99
2022-11-28T11:16:57.392Z,23.90
2022-11-28T11:17:57.441Z,23.99
2022-11-28T11:18:57.367Z,23.61
2022-11-28T11:19:57.331Z,23.80
2022-11-28T11:20:57.304Z,24.57
2022-11-28T11:21:57.283Z,24.09
2022-11-28T11:22:57.258Z,24.47
2022-11-28T11:23:57.245Z,24.09
2022-11-28T11:24:57.212Z,23.80
2022-11-28T11:25:57.191Z,23.52
2022-11-28T11:26:57.173Z,23.52
2022-11-28T11:27:57.160Z,23.99
2022-11-28T11:28:57.136Z,23.80
2022-11-28T11:29:57.102Z,23.52
2022-11-28T11:30:57.125Z,23.23
2022-11-28T11:31:57.058Z,22.66
2022-11-28T11:32:57.042Z,22.28
2022-11-28T11:33:57.033Z,24.57
2022-11-28T11:34:57.001Z,25.13
2022-11-28T11:35:56.982Z,24.76
2022-11-28T11:36:56.962Z,25.81
2022-11-28T11:37:56.928Z,25.42
2022-11-28T11:38:56.914Z,24.57
2022-11-28T11:39:56.894Z,24.09
2022-11-28T11:40:56.861Z,23.61
2022-11-28T11:41:56.847Z,24.47
2022-11-28T11:42:56.823Z,23.61
2022-11-28T11:43:56.802Z,22.75
2022-11-28T11:44:56.779Z,22.19
2022-11-28T11:45:56.830Z,21.71
2022-11-28T11:46:56.762Z,21.33
2022-11-28T11:47:56.718Z,20.76
2022-11-28T11:48:56.695Z,19.90
2022-11-28T11:49:56.695Z,20.28
2022-11-28T11:50:56.650Z,19.33
2022-11-28T11:51:56.627Z,19.42
2022-11-28T11:52:56.603Z,19.33
2022-11-28T11:53:56.584Z,19.13
2022-11-28T11:54:56.568Z,19.42
2022-11-28T11:55:56.541Z,20.00
2022-11-28T11:57:11.281Z,19.90
2022-11-28T11:57:56.505Z,19.52
2022-11-28T11:58:56.481Z,19.90
2022-11-28T11:59:56.506Z,19.42
2022-11-28T12:00:56.431Z,19.23
2022-11-28T12:01:56.411Z,18.85
2022-11-28T12:02:56.562Z,18.85
2022-11-28T12:03:56.458Z,18.47
2022-11-28T12:04:56.424Z,19.13
2022-11-28T12:06:13.722Z,20.00
2022-11-28T12:06:56.302Z,19.71
2022-11-28T12:07:56.420Z,19.90
2022-11-28T12:08:56.259Z,19.90
2022-11-28T12:09:58.511Z,19.23
2022-11-28T12:10:56.211Z,18.85
2022-11-28T12:11:56.189Z,18.57
2022-11-28T12:12:56.170Z,18.66
2022-11-28T12:13:56.144Z,18.29
2022-11-28T12:14:56.129Z,18.18
2022-11-28T12:15:56.162Z,17.99
2022-11-28T12:16:56.086Z,17.80
2022-11-28T12:17:59.030Z,17.43
2022-11-28T12:18:56.037Z,17.71
2022-11-28T12:19:56.017Z,18.18
2022-11-28T12:20:56.002Z,17.43
2022-11-28T12:21:56.009Z,17.71
2022-11-28T12:22:55.953Z,17.04
2022-11-28T12:23:55.930Z,16.86
2022-11-28T12:24:55.936Z,16.56
2022-11-28T12:25:55.888Z,16.77
2022-11-28T12:26:55.869Z,16.38
2022-11-28T12:27:55.846Z,16.19
2022-11-28T12:28:55.835Z,16.09
2022-11-28T12:29:55.806Z,17.05
2022-11-28T12:30:55.842Z,17.81
2022-11-28T12:31:55.788Z,18.10
2022-11-28T12:32:55.747Z,18.19
2022-11-28T12:33:55.716Z,17.62
2022-11-28T12:34:55.693Z,17.33
2022-11-28T12:35:59.009Z,18.01
2022-11-28T12:36:55.653Z,18.10
2022-11-28T12:38:10.305Z,18.10
2022-11-28T12:38:55.620Z,17.81
2022-11-28T12:39:55.589Z,17.43
2022-11-28T12:40:55.572Z,17.43
2022-11-28T12:41:55.543Z,17.24
2022-11-28T12:42:55.523Z,17.05
2022-11-28T12:43:55.499Z,16.86
2022-11-28T12:44:55.481Z,16.86
2022-11-28T12:45:55.566Z,16.86
2022-11-28T12:46:55.438Z,17.53
2022-11-28T12:47:55.414Z,17.14
2022-11-28T12:48:55.395Z,16.48
2022-11-28T12:49:55.373Z,16.00
2022-11-28T12:50:55.358Z,16.09
2022-11-28T12:51:55.332Z,16.77
2022-11-28T12:52:55.308Z,15.91
2022-11-28T12:53:55.311Z,15.90
2022-11-28T12:54:55.278Z,15.52
2022-11-28T12:55:55.245Z,17.04
2022-11-28T12:56:55.273Z,15.90
2022-11-28T12:57:55.200Z,15.23
2022-11-28T12:58:55.182Z,14.67
2022-11-28T12:59:55.153Z,13.90
2022-11-28T13:00:55.136Z,14.58